Time;durP1;ratioP1;P1;durP2;ratioP2;P2;SDS_P1;SDS_P2;PMS_P1;PMS_P2;Temp;Humidity;BMP_temperature;BMP_pressure;BME280_temperature;BME280_humidity;BME280_pressure;Samples;Min_cycle;Max_cycle;Signal;HPM_P1;HPM_P2
2022/05/08 00:01:09;;;;;;;;;11.75;11.50;;;;;16.59;70.45;99345.28;5065382;28;45943;-71
2022/05/08 00:03:35;;;;;;;;;12.75;12.75;;;;;16.59;70.27;99342.63;5057607;28;45420;-71
2022/05/08 00:06:06;;;;;;;;;15.50;13.75;;;;;16.59;70.02;99346.09;5062373;28;45423;-71
2022/05/08 00:08:32;;;;;;;;;14.75;14.00;;;;;16.58;69.98;99347.09;5077280;28;45552;-71
2022/05/08 00:10:57;;;;;;;;;12.00;12.00;;;;;16.57;69.75;99345.38;5073243;28;46338;-71
2022/05/08 00:13:35;;;;;;;;;13.00;12.50;;;;;16.56;69.56;99338.34;5075792;28;45286;-71
2022/05/08 00:16:01;;;;;;;;;13.75;13.25;;;;;16.55;69.31;99343.75;5072871;28;45527;-71
2022/05/08 00:18:26;;;;;;;;;14.75;13.00;;;;;16.56;69.52;99346.31;5072324;28;45360;-71
2022/05/08 00:20:52;;;;;;;;;12.00;11.50;;;;;16.56;69.74;99348.13;5073400;28;45530;-71
2022/05/08 00:23:17;;;;;;;;;12.75;12.25;;;;;16.55;69.66;99344.59;5054041;28;45459;-71
2022/05/08 00:25:42;;;;;;;;;12.50;11.50;;;;;16.55;69.31;99346.41;5071798;28;45415;-71
2022/05/08 00:28:08;;;;;;;;;12.25;12.25;;;;;16.55;69.14;99344.59;5070608;28;45606;-71
2022/05/08 00:30:33;;;;;;;;;9.50;7.50;;;;;16.55;69.27;99344.59;5073491;28;45520;-71
2022/05/08 00:32:59;;;;;;;;;11.00;11.00;;;;;16.54;69.41;99347.38;5075276;28;45449;-71
2022/05/08 00:35:25;;;;;;;;;12.75;11.75;;;;;16.52;69.58;99342.13;5075236;28;45352;-71
2022/05/08 00:37:50;;;;;;;;;10.75;10.75;;;;;16.50;69.35;99336.03;5077037;27;45427;-71
2022/05/08 00:40:15;;;;;;;;;14.25;11.75;;;;;16.49;69.59;99338.78;5095586;27;46202;-71
2022/05/08 00:42:42;;;;;;;;;13.75;12.75;;;;;16.47;69.76;99341.53;5095220;27;45398;-71
2022/05/08 00:45:08;;;;;;;;;11.50;11.25;;;;;16.47;70.02;99341.53;5090884;27;45661;-71
2022/05/08 00:47:35;;;;;;;;;12.00;11.50;;;;;16.45;70.00;99345.25;5095999;27;45705;-71
2022/05/08 00:50:01;;;;;;;;;15.00;13.00;;;;;16.40;69.90;99342.88;5094500;27;45558;-71
2022/05/08 00:52:27;;;;;;;;;15.00;13.00;;;;;16.35;70.28;99347.63;5096685;27;45343;-71
2022/05/08 00:54:52;;;;;;;;;9.75;9.25;;;;;16.31;70.52;99344.28;5075442;28;45598;-71
2022/05/08 00:57:36;;;;;;;;;16.00;13.00;;;;;16.27;70.35;99341.88;5088162;27;45539;-71
2022/05/08 01:00:04;;;;;;;;;12.25;12.25;;;;;16.26;70.38;99337.50;5094180;27;45511;-71
2022/05/08 01:02:29;;;;;;;;;12.75;12.25;;;;;16.22;70.52;99342.19;5094423;27;45212;-71
2022/05/08 01:04:55;;;;;;;;;13.00;13.00;;;;;16.20;70.38;99338.75;5093440;27;45285;-71
2022/05/08 01:07:21;;;;;;;;;11.50;11.00;;;;;16.17;70.61;99338.06;5088061;27;45588;-71
2022/05/08 01:09:47;;;;;;;;;11.00;11.00;;;;;16.16;70.60;99331.03;5085926;27;46072;-71
2022/05/08 01:12:12;;;;;;;;;16.00;13.25;;;;;16.15;70.54;99334.63;5093147;27;45360;-71
2022/05/08 01:14:37;;;;;;;;;14.25;11.50;;;;;16.11;70.73;99330.44;5085522;27;45801;-71
2022/05/08 01:17:03;;;;;;;;;13.75;13.00;;;;;16.08;71.02;99336.81;5096321;27;45478;-71
2022/05/08 01:19:28;;;;;;;;;15.25;14.75;;;;;16.05;70.84;99334.34;5095636;27;46285;-71
2022/05/08 01:22:04;;;;;;;;;12.25;12.00;;;;;16.00;70.76;99331.94;5095102;27;45548;-71
2022/05/08 01:24:29;;;;;;;;;13.00;11.75;;;;;15.96;71.06;99330.41;5095609;27;45367;-71
2022/05/08 01:26:55;;;;;;;;;13.00;10.75;;;;;15.96;70.72;99329.53;5086715;27;45369;-71
2022/05/08 01:29:31;;;;;;;;;16.25;13.25;;;;;15.96;70.72;99334.84;5095234;27;46200;-71
2022/05/08 01:32:06;;;;;;;;;15.50;14.75;;;;;15.93;70.67;99327.91;5095104;27;45354;-71
2022/05/08 01:34:32;;;;;;;;;12.00;12.00;;;;;15.91;70.52;99326.31;5095986;27;45433;-71
2022/05/08 01:36:57;;;;;;;;;11.50;11.50;;;;;15.89;70.80;99336.19;5090054;27;45385;-71
2022/05/08 01:39:22;;;;;;;;;13.75;12.75;;;;;15.87;70.93;99330.09;5068649;27;48231;-71
2022/05/08 01:41:48;;;;;;;;;14.50;11.50;;;;;15.86;70.48;99339.00;5094742;27;45393;-71
2022/05/08 01:44:13;;;;;;;;;14.00;11.50;;;;;15.84;70.85;99336.44;5096163;27;45499;-71
2022/05/08 01:46:38;;;;;;;;;14.75;13.75;;;;;15.83;70.72;99340.03;5095085;27;45392;-71
2022/05/08 01:49:04;;;;;;;;;21.25;15.75;;;;;15.81;70.88;99338.41;5084830;27;46697;-71
2022/05/08 01:51:29;;;;;;;;;14.50;13.50;;;;;15.81;70.71;99341.06;5093503;27;45353;-71
2022/05/08 01:53:55;;;;;;;;;15.00;12.50;;;;;15.75;70.78;99342.31;5082036;27;45674;-71
2022/05/08 01:56:20;;;;;;;;;14.25;13.75;;;;;15.64;70.52;99342.91;5094887;27;45369;-71
2022/05/08 01:58:47;;;;;;;;;19.25;16.50;;;;;15.49;70.81;99337.56;5090518;27;45324;-71
2022/05/08 02:01:14;;;;;;;;;14.25;14.00;;;;;15.35;71.08;99341.88;5087310;27;45506;-71
2022/05/08 02:03:49;;;;;;;;;14.50;14.50;;;;;15.25;71.44;99339.78;5095290;27;45364;-72
2022/05/08 02:06:18;;;;;;;;;15.50;15.25;;;;;15.20;71.72;99339.22;5090542;27;45525;-72
2022/05/08 02:08:44;;;;;;;;;14.50;13.50;;;;;15.18;71.86;99344.59;5088364;27;45713;-71
2022/05/08 02:11:09;;;;;;;;;16.00;15.75;;;;;15.17;71.93;99340.22;5096398;27;45352;-71
2022/05/08 02:13:34;;;;;;;;;15.00;14.25;;;;;15.19;72.06;99340.16;5088449;27;45414;-71
2022/05/08 02:16:00;;;;;;;;;15.25;14.50;;;;;15.20;72.53;99341.88;5085946;27;45351;-71
2022/05/08 02:18:25;;;;;;;;;17.75;15.75;;;;;15.20;72.77;99342.72;5086897;27;46278;-71
2022/05/08 02:20:51;;;;;;;;;13.50;12.25;;;;;15.22;72.77;99343.50;5087144;27;45536;-71
2022/05/08 02:23:16;;;;;;;;;16.00;14.25;;;;;15.23;73.02;99344.34;5067665;27;45404;-71
2022/05/08 02:25:42;;;;;;;;;14.75;14.00;;;;;15.26;73.45;99336.19;5096289;27;45356;-71
2022/05/08 02:28:09;;;;;;;;;15.00;13.50;;;;;15.28;73.81;99337.81;5090159;27;47361;-72
2022/05/08 02:30:34;;;;;;;;;14.00;14.00;;;;;15.29;73.85;99333.38;5090269;27;45614;-71
2022/05/08 02:33:00;;;;;;;;;15.00;13.75;;;;;15.27;73.73;99328.16;5093871;27;45594;-71
2022/05/08 02:35:25;;;;;;;;;15.75;14.00;;;;;15.28;73.86;99335.16;5094439;27;45466;-71
2022/05/08 02:38:00;;;;;;;;;14.25;12.25;;;;;15.27;74.26;99332.59;5095832;27;45501;-71
2022/05/08 02:40:25;;;;;;;;;12.75;12.50;;;;;15.27;74.03;99336.13;5086618;27;45477;-72
2022/05/08 02:43:00;;;;;;;;;12.50;12.50;;;;;15.26;74.36;99331.75;5089211;27;45419;-71
2022/05/08 02:45:25;;;;;;;;;18.75;16.75;;;;;15.25;74.75;99332.69;5093397;27;45441;-71
2022/05/08 02:47:51;;;;;;;;;12.50;12.50;;;;;15.24;74.28;99341.63;5094360;27;46627;-72
2022/05/08 02:50:17;;;;;;;;;15.25;12.25;;;;;15.20;74.40;99337.41;5077005;27;45901;-71
2022/05/08 02:52:53;;;;;;;;;14.25;14.25;;;;;15.19;74.63;99342.81;5095230;27;45580;-71
2022/05/08 03:00:48;;;;;;;;;14.75;12.50;;;;;15.08;74.31;99343.38;5079040;27;45316;-71
2022/05/08 03:03:14;;;;;;;;;18.75;17.50;;;;;15.00;74.01;99343.81;5075221;28;45416;-71
2022/05/08 03:05:44;;;;;;;;;14.00;14.00;;;;;14.94;74.39;99344.13;5075905;27;45408;-71
2022/05/08 03:08:11;;;;;;;;;14.00;13.50;;;;;14.90;74.48;99336.44;5095183;27;46746;-71
2022/05/08 03:13:21;;;;;;;;;20.00;17.25;;;;;14.87;73.84;99336.59;5090415;27;45476;-71
2022/05/08 03:15:47;;;;;;;;;16.00;16.00;;;;;14.86;73.52;99341.06;5081494;27;45407;-71
2022/05/08 03:18:14;;;;;;;;;17.25;14.50;;;;;14.86;73.94;99338.41;5081559;27;47421;-71
2022/05/08 03:20:40;;;;;;;;;12.75;12.75;;;;;14.87;73.69;99336.59;5090748;27;45364;-71
2022/05/08 03:23:06;;;;;;;;;16.50;14.25;;;;;14.86;73.72;99338.41;5087023;27;45466;-71
2022/05/08 03:25:31;;;;;;;;;15.00;15.00;;;;;14.85;74.30;99336.69;5074842;28;45393;-72
2022/05/08 03:27:57;;;;;;;;;16.25;15.00;;;;;14.86;74.03;99338.41;5087422;27;46281;-71
2022/05/08 03:30:23;;;;;;;;;17.25;16.50;;;;;14.87;74.10;99342.78;5093205;27;45483;-71
2022/05/08 03:32:49;;;;;;;;;17.75;17.75;;;;;14.84;74.64;99327.00;5094536;27;45705;-71
2022/05/08 03:35:14;;;;;;;;;21.25;18.50;;;;;14.81;74.51;99327.16;5094609;27;45570;-71
2022/05/08 03:37:39;;;;;;;;;19.50;18.25;;;;;14.81;74.76;99331.63;5092242;27;46549;-71
2022/05/08 03:40:06;;;;;;;;;19.50;18.25;;;;;14.82;75.31;99334.19;5091832;27;45300;-71
2022/05/08 03:42:31;;;;;;;;;16.00;16.00;;;;;14.84;75.55;99329.66;5095263;27;45416;-71
2022/05/08 03:44:56;;;;;;;;;18.25;16.75;;;;;14.84;75.19;99328.81;5077457;27;45468;-71
2022/05/08 03:47:31;;;;;;;;;21.75;19.75;;;;;14.84;75.43;99323.50;5082202;27;45479;-71
2022/05/08 03:49:56;;;;;;;;;16.00;16.00;;;;;14.84;75.93;99320.84;5092390;27;45419;-71
2022/05/08 03:52:22;;;;;;;;;18.50;18.50;;;;;14.83;75.23;99327.09;5096422;27;45413;-72
2022/05/08 03:54:47;;;;;;;;;16.50;16.50;;;;;14.81;75.40;99328.97;5098159;27;45566;-71
2022/05/08 03:57:12;;;;;;;;;15.00;15.00;;;;;14.79;75.25;99326.38;5097893;27;46121;-71
2022/05/08 03:59:38;;;;;;;;;19.25;16.25;;;;;14.75;75.39;99330.13;5094681;27;45427;-71
2022/05/08 04:02:03;;;;;;;;;17.75;15.75;;;;;14.72;75.11;99326.81;5079791;27;45536;-71
2022/05/08 04:04:29;;;;;;;;;18.25;16.25;;;;;14.69;75.54;99329.63;5097318;27;45329;-71
2022/05/08 04:06:54;;;;;;;;;17.50;17.50;;;;;14.64;75.53;99340.47;5097629;27;46167;-71
2022/05/08 04:09:19;;;;;;;;;15.25;15.25;;;;;14.62;75.60;99343.22;5097023;27;45434;-71
2022/05/08 04:11:54;;;;;;;;;15.00;14.50;;;;;14.61;75.55;99341.50;5095482;27;45533;-71
2022/05/08 04:14:20;;;;;;;;;17.75;17.25;;;;;14.60;75.47;99341.56;5091344;27;45408;-71
2022/05/08 04:16:47;;;;;;;;;19.75;19.00;;;;;14.58;76.15;99338.13;5093790;27;45469;-71
2022/05/08 04:19:12;;;;;;;;;14.00;13.25;;;;;14.57;75.87;99355.88;5087738;27;45410;-71
2022/05/08 04:21:37;;;;;;;;;16.50;13.25;;;;;14.54;75.89;99353.38;5089768;27;45337;-71
2022/05/08 04:24:18;;;;;;;;;14.50;14.25;;;;;14.51;75.96;99348.25;5085822;27;45540;-71
2022/05/08 04:26:45;;;;;;;;;15.50;14.00;;;;;14.49;75.91;99357.22;5087809;27;45439;-71
2022/05/08 04:29:10;;;;;;;;;20.00;17.50;;;;;14.46;75.99;99360.88;5090923;27;45407;-71
2022/05/08 04:31:36;;;;;;;;;19.50;15.00;;;;;14.45;76.35;99360.94;5095386;27;45491;-71
2022/05/08 04:34:02;;;;;;;;;20.50;19.50;;;;;14.42;77.69;99369.91;5087991;27;45488;-72
2022/05/08 04:36:27;;;;;;;;;18.75;16.25;;;;;14.32;77.30;99369.53;5083456;27;47390;-71
2022/05/08 04:38:53;;;;;;;;;17.00;16.00;;;;;14.27;76.91;99370.69;5087544;27;45505;-71
2022/05/08 04:41:19;;;;;;;;;16.75;14.00;;;;;14.22;76.41;99375.38;5096205;27;45393;-71
2022/05/08 04:43:44;;;;;;;;;12.75;12.25;;;;;14.16;76.55;99368.59;5095540;27;45447;-72
2022/05/08 04:46:10;;;;;;;;;16.50;15.75;;;;;14.08;76.88;99368.09;5083352;27;45859;-71
2022/05/08 04:48:37;;;;;;;;;15.00;14.25;;;;;14.03;77.29;99379.91;5088952;27;45445;-71
2022/05/08 04:51:03;;;;;;;;;18.25;15.00;;;;;13.97;78.57;99386.34;5093830;27;45498;-71
2022/05/08 04:53:38;;;;;;;;;14.00;14.00;;;;;13.92;78.08;99385.72;5089846;27;45464;-67
2022/05/08 04:56:03;;;;;;;;;16.75;13.75;;;;;13.89;78.26;99388.53;5090809;27;45522;-72
2022/05/08 04:58:31;;;;;;;;;17.25;16.00;;;;;13.87;78.10;99390.41;5084599;27;45488;-70
2022/05/08 05:01:00;;;;;;;;;15.00;13.75;;;;;13.85;77.55;99387.81;5092301;27;45439;-71
2022/05/08 05:03:26;;;;;;;;;11.25;11.00;;;;;13.86;77.68;99391.34;5065839;27;45459;-71
2022/05/08 05:05:51;;;;;;;;;17.50;17.25;;;;;13.87;77.72;99401.00;5097076;27;46363;-70
2022/05/08 05:08:18;;;;;;;;;16.00;15.00;;;;;13.87;77.04;99393.03;5093579;27;45405;-71
2022/05/08 05:10:44;;;;;;;;;16.75;14.75;;;;;13.87;77.22;99398.34;5076083;27;45427;-71
2022/05/08 05:13:09;;;;;;;;;18.75;16.75;;;;;13.87;77.13;99401.00;5090458;27;45361;-70
2022/05/08 05:15:35;;;;;;;;;20.00;16.25;;;;;13.88;76.81;99400.94;5093043;27;45309;-71
2022/05/08 05:18:01;;;;;;;;;19.25;17.50;;;;;13.90;77.16;99399.06;5095433;27;45672;-71
2022/05/08 05:20:28;;;;;;;;;14.00;14.00;;;;;13.92;76.87;99394.50;5094608;27;45329;-71
2022/05/08 05:22:54;;;;;;;;;17.50;14.25;;;;;13.94;76.62;99397.94;5080454;27;45364;-71
2022/05/08 05:25:19;;;;;;;;;15.50;14.00;;;;;13.97;76.61;99400.47;5089601;27;45582;-70
2022/05/08 05:27:45;;;;;;;;;15.25;14.75;;;;;14.04;76.58;99395.72;5088500;27;45571;-70
2022/05/08 05:30:11;;;;;;;;;17.25;16.75;;;;;14.10;76.74;99406.00;5078803;27;45497;-71
2022/05/08 05:32:37;;;;;;;;;17.00;16.00;;;;;14.17;77.20;99407.44;5096468;27;45373;-70
2022/05/08 05:35:02;;;;;;;;;17.25;17.00;;;;;14.23;77.21;99411.56;5082657;27;46384;-71
2022/05/08 05:37:28;;;;;;;;;18.25;18.00;;;;;14.30;76.62;99403.22;5087886;27;45504;-70
2022/05/08 05:39:53;;;;;;;;;18.25;16.00;;;;;14.38;76.30;99412.59;5091954;27;45381;-71
2022/05/08 05:42:19;;;;;;;;;18.00;16.75;;;;;14.44;76.53;99410.50;5095706;27;45544;-71
2022/05/08 05:44:44;;;;;;;;;21.00;17.50;;;;;14.51;76.43;99414.56;5092864;27;45574;-71
2022/05/08 05:49:53;;;;;;;;;17.25;17.25;;;;;14.65;75.92;99413.84;5095579;27;45385;-71
2022/05/08 05:52:19;;;;;;;;;19.50;17.50;;;;;14.73;76.00;99410.81;5094975;27;45399;-71
2022/05/08 05:54:44;;;;;;;;;19.75;17.25;;;;;14.78;75.64;99406.09;5092911;27;45421;-71
2022/05/08 05:57:09;;;;;;;;;22.75;21.50;;;;;14.84;75.35;99417.25;5066229;27;45381;-71
2022/05/08 05:59:35;;;;;;;;;21.50;18.00;;;;;14.88;75.48;99412.66;5096187;27;45209;-71
2022/05/08 06:02:00;;;;;;;;;24.00;22.25;;;;;14.91;75.33;99420.47;5081835;27;45325;-71
2022/05/08 06:04:26;;;;;;;;;18.50;16.75;;;;;14.94;74.87;99421.13;5092460;27;45225;-71
2022/05/08 06:06:51;;;;;;;;;17.25;15.75;;;;;14.98;74.47;99419.19;5095185;27;45444;-70
2022/05/08 06:09:17;;;;;;;;;18.75;16.00;;;;;15.04;74.22;99420.66;5088888;27;45356;-71
2022/05/08 06:11:44;;;;;;;;;17.75;15.25;;;;;15.05;74.02;99417.91;5095497;27;45514;-71
2022/05/08 06:14:09;;;;;;;;;20.25;19.50;;;;;15.08;73.98;99415.06;5089105;27;45635;-71
2022/05/08 06:16:35;;;;;;;;;19.75;18.50;;;;;15.13;74.11;99415.69;5093773;27;45364;-71
2022/05/08 06:19:01;;;;;;;;;17.00;17.00;;;;;15.18;73.81;99415.47;5086346;27;45541;-71
2022/05/08 06:21:27;;;;;;;;;20.25;18.75;;;;;15.23;73.72;99413.41;5093760;27;45520;-71
2022/05/08 06:23:54;;;;;;;;;14.50;14.50;;;;;15.26;73.38;99411.44;5089564;27;45506;-71
2022/05/08 06:26:19;;;;;;;;;21.25;20.50;;;;;15.30;73.50;99420.94;5082895;27;45427;-71
2022/05/08 06:28:45;;;;;;;;;22.25;21.50;;;;;15.35;73.42;99415.41;5084538;27;45488;-71
2022/05/08 06:31:14;;;;;;;;;22.50;20.50;;;;;15.40;73.60;99421.31;5063400;27;45407;-71
2022/05/08 06:33:40;;;;;;;;;18.50;16.50;;;;;15.47;73.68;99421.81;5083763;27;45753;-71
2022/05/08 06:36:06;;;;;;;;;21.25;21.25;;;;;15.53;74.04;99419.69;5093515;27;45523;-72
2022/05/08 06:38:31;;;;;;;;;18.50;17.50;;;;;15.59;73.60;99419.38;5093709;27;45388;-71
2022/05/08 06:40:56;;;;;;;;;23.50;19.25;;;;;15.67;74.02;99424.28;5072671;28;45396;-70
2022/05/08 06:43:32;;;;;;;;;19.00;17.25;;;;;15.75;73.82;99415.88;5078186;27;46563;-71
2022/05/08 06:45:58;;;;;;;;;21.00;19.00;;;;;15.81;73.80;99416.38;5087708;27;45491;-71
2022/05/08 06:48:23;;;;;;;;;17.25;16.00;;;;;15.87;73.35;99421.34;5071812;28;45451;-71
2022/05/08 06:50:49;;;;;;;;;17.25;15.00;;;;;15.92;72.91;99418.44;5077900;27;45584;-71
2022/05/08 06:53:23;;;;;;;;;20.25;18.75;;;;;15.99;73.05;99422.44;5079670;27;45633;-71
2022/05/08 06:55:49;;;;;;;;;17.25;17.25;;;;;16.07;72.69;99422.03;5081110;27;45457;-70
2022/05/08 06:58:14;;;;;;;;;18.50;16.00;;;;;16.14;72.03;99418.91;5081227;27;45417;-71
2022/05/08 07:03:24;;;;;;;;;20.25;17.75;;;;;16.27;71.27;99422.56;5083622;27;45766;-75
2022/05/08 07:05:49;;;;;;;;;14.00;13.50;;;;;16.32;70.86;99427.59;5093712;27;45422;-75
2022/05/08 07:08:15;;;;;;;;;16.75;16.00;;;;;16.37;70.34;99426.41;5091991;27;45231;-70
2022/05/08 07:10:51;;;;;;;;;18.50;18.50;;;;;16.42;69.73;99431.47;5093813;27;45435;-70
2022/05/08 07:13:16;;;;;;;;;20.00;17.75;;;;;16.46;69.87;99432.13;5088664;27;46199;-70
2022/05/08 07:15:42;;;;;;;;;24.75;21.25;;;;;16.48;69.34;99436.41;5085124;27;45263;-70
2022/05/08 07:18:07;;;;;;;;;21.50;20.50;;;;;16.52;69.02;99429.09;5082966;27;45408;-69
2022/05/08 07:20:33;;;;;;;;;18.25;18.25;;;;;16.54;68.84;99432.53;5094526;27;45302;-69
2022/05/08 07:23:09;;;;;;;;;18.25;17.00;;;;;16.56;67.88;99427.97;5094586;27;45555;-70
2022/05/08 07:25:35;;;;;;;;;15.60;14.40;;;;;16.53;68.17;99439.66;5078750;27;45329;-70
2022/05/08 07:28:00;;;;;;;;;14.00;14.00;;;;;16.49;68.59;99437.25;5075098;27;45463;-61
2022/05/08 07:30:25;;;;;;;;;21.00;17.50;;;;;16.47;68.18;99441.81;5068892;27;45555;-61
2022/05/08 07:32:51;;;;;;;;;19.75;17.00;;;;;16.49;68.44;99446.09;5093051;27;45546;-61
2022/05/08 07:38:00;;;;;;;;;18.50;18.50;;;;;16.61;67.84;99447.16;5083949;27;45514;-61
2022/05/08 07:40:26;;;;;;;;;15.50;15.50;;;;;16.65;67.64;99444.28;5090151;27;45519;-61
2022/05/08 07:42:52;;;;;;;;;14.00;13.50;;;;;16.72;67.86;99442.13;5083705;27;45598;-61
2022/05/08 07:45:28;;;;;;;;;18.00;16.25;;;;;16.81;67.84;99446.88;5077132;28;45470;-61
2022/05/08 07:48:02;;;;;;;;;18.00;16.50;;;;;16.88;67.28;99448.22;5077855;27;45494;-61
2022/05/08 07:50:28;;;;;;;;;18.00;18.00;;;;;16.94;67.59;99446.97;5077826;28;45432;-61
2022/05/08 07:52:53;;;;;;;;;19.00;16.00;;;;;16.99;67.53;99450.22;5077561;28;46114;-61
2022/05/08 07:55:18;;;;;;;;;15.25;13.75;;;;;17.03;67.36;99447.28;5079081;27;45388;-61
2022/05/08 07:57:44;;;;;;;;;15.00;15.00;;;;;17.09;67.10;99451.41;5091314;27;45669;-61
2022/05/08 08:00:10;;;;;;;;;17.75;17.50;;;;;17.14;67.19;99454.63;5059298;28;45997;-61
2022/05/08 08:02:35;;;;;;;;;18.50;18.00;;;;;17.17;66.68;99457.09;5077325;28;45496;-61
2022/05/08 08:05:01;;;;;;;;;16.75;15.75;;;;;17.20;66.54;99450.72;5091203;27;45467;-61
2022/05/08 08:07:26;;;;;;;;;17.50;16.25;;;;;17.25;66.26;99460.16;5090649;27;45517;-61
2022/05/08 08:09:52;;;;;;;;;17.00;15.50;;;;;17.34;66.68;99462.25;5093278;27;45441;-60
2022/05/08 08:12:18;;;;;;;;;20.50;17.75;;;;;17.43;65.76;99458.97;5092727;27;45672;-61
2022/05/08 08:14:43;;;;;;;;;21.50;20.50;;;;;17.52;65.38;99456.72;5089131;27;45507;-61
2022/05/08 08:17:09;;;;;;;;;19.50;15.50;;;;;17.60;65.00;99457.91;5078276;27;45526;-61
2022/05/08 08:19:43;;;;;;;;;14.00;14.00;;;;;17.70;63.86;99455.56;5077519;27;45483;-61
2022/05/08 08:22:09;;;;;;;;;14.25;13.50;;;;;17.76;64.73;99455.19;5077297;28;45375;-61
2022/05/08 08:24:34;;;;;;;;;18.50;17.50;;;;;17.85;64.57;99454.59;5088663;27;45404;-61
2022/05/08 08:27:01;;;;;;;;;15.50;14.00;;;;;17.94;63.55;99459.31;5094546;27;45614;-61
2022/05/08 08:29:26;;;;;;;;;22.75;20.25;;;;;17.98;63.17;99458.16;5082577;27;45428;-61
2022/05/08 08:31:51;;;;;;;;;17.75;16.50;;;;;17.98;62.91;99452.84;5096838;27;45953;-61
2022/05/08 08:34:17;;;;;;;;;17.00;17.00;;;;;17.97;62.49;99459.13;5097559;27;45450;-61
2022/05/08 08:36:42;;;;;;;;;22.50;18.25;;;;;17.96;62.43;99453.88;5096612;27;45814;-61
2022/05/08 08:39:08;;;;;;;;;19.25;16.50;;;;;17.99;62.61;99462.53;5095146;27;45476;-61
2022/05/08 08:41:35;;;;;;;;;16.50;14.25;;;;;18.09;63.11;99460.16;5090827;27;46354;-61
2022/05/08 08:49:43;;;;;;;;;17.00;16.75;;;;;18.32;61.92;99453.28;5097279;27;45444;-61
2022/05/08 08:52:10;;;;;;;;;15.25;14.00;;;;;18.40;62.51;99450.97;5076964;27;46344;-61
2022/05/08 08:54:35;;;;;;;;;15.00;15.00;;;;;18.46;62.06;99447.88;5058265;28;46588;-61
2022/05/08 08:57:01;;;;;;;;;15.75;15.75;;;;;18.51;62.26;99458.25;5076812;28;45509;-61
2022/05/08 08:59:26;;;;;;;;;17.75;17.50;;;;;18.60;61.48;99455.00;5080594;27;45465;-61
2022/05/08 09:01:52;;;;;;;;;18.75;17.50;;;;;18.68;61.43;99452.66;5078306;27;47560;-61
2022/05/08 09:04:18;;;;;;;;;13.50;12.00;;;;;18.78;61.60;99451.91;5096916;27;45505;-61
2022/05/08 09:06:45;;;;;;;;;20.25;17.25;;;;;18.90;61.18;99452.91;5087053;27;45273;-61
2022/05/08 09:09:33;;;;;;;;;17.00;15.50;;;;;18.99;60.55;99449.59;5075887;28;45349;-61
2022/05/08 09:11:59;;;;;;;;;17.25;16.75;;;;;19.12;60.93;99454.94;5085977;27;47109;-61
2022/05/08 09:14:36;;;;;;;;;19.00;17.00;;;;;19.21;60.06;99456.13;5062720;27;45454;-61
2022/05/08 09:17:04;;;;;;;;;16.00;15.50;;;;;19.26;60.70;99454.84;5096069;27;45470;-61
2022/05/08 09:19:39;;;;;;;;;17.75;15.75;;;;;19.34;59.53;99459.63;5086860;27;45457;-60
2022/05/08 09:22:09;;;;;;;;;17.00;16.00;;;;;19.31;57.37;99460.69;5096365;27;46606;-61
2022/05/08 09:24:38;;;;;;;;;14.40;12.80;;;;;19.26;58.65;99451.31;5076066;28;45514;-61
2022/05/08 09:27:25;;;;;;;;;18.25;16.50;;;;;19.17;56.87;99461.69;5081350;27;45439;-61
2022/05/08 09:30:06;;;;;;;;;14.25;12.75;;;;;19.02;57.70;99457.41;5087990;27;45515;-60
2022/05/08 09:32:38;;;;;;;;;13.50;12.25;;;;;18.97;57.86;99459.53;5081758;27;46187;-60
2022/05/08 09:35:05;;;;;;;;;10.20;10.00;;;;;18.97;57.92;99459.53;5091555;27;45543;-60
2022/05/08 09:37:30;;;;;;;;;16.25;15.00;;;;;18.99;57.31;99456.75;5083519;27;45467;-60
2022/05/08 09:40:15;;;;;;;;;15.25;13.75;;;;;18.91;56.68;99459.13;5071483;27;45489;-60
2022/05/08 09:42:41;;;;;;;;;16.25;13.50;;;;;18.87;57.79;99453.13;5093557;27;45467;-60
2022/05/08 09:45:08;;;;;;;;;15.50;13.75;;;;;18.91;56.73;99459.97;5093733;27;45377;-60
2022/05/08 09:47:44;;;;;;;;;15.50;13.50;;;;;18.98;56.72;99450.56;5089466;27;45525;-60
2022/05/08 09:50:11;;;;;;;;;12.00;11.00;;;;;19.03;56.42;99456.44;5090174;27;45532;-60
2022/05/08 09:52:41;;;;;;;;;15.00;14.00;;;;;19.07;56.87;99451.75;5092041;27;46202;-60
2022/05/08 09:55:16;;;;;;;;;11.80;10.40;;;;;19.18;56.77;99451.84;5093018;27;45387;-60
2022/05/08 09:57:41;;;;;;;;;16.75;13.25;;;;;19.36;57.04;99449.69;5079213;27;45382;-60
2022/05/08 10:00:09;;;;;;;;;13.25;12.75;;;;;19.52;56.21;99447.66;5057076;28;45554;-60
2022/05/08 10:02:35;;;;;;;;;13.00;13.00;;;;;19.62;55.53;99448.69;5090289;27;45653;-67
2022/05/08 10:05:01;;;;;;;;;12.80;11.80;;;;;19.71;55.43;99452.56;5075895;27;45468;-69
2022/05/08 10:07:27;;;;;;;;;14.00;12.25;;;;;19.78;55.72;99446.63;5080144;27;45434;-68
2022/05/08 10:15:29;;;;;;;;;11.40;10.80;;;;;20.02;55.05;99446.66;5079683;27;45260;-68
2022/05/08 10:18:23;;;;;;;;;5.00;5.00;;;;;20.09;53.31;99444.41;5093331;27;45427;-67
2022/05/08 10:21:12;;;;;;;;;11.25;10.50;;;;;20.16;53.54;99446.50;5094827;27;45494;-60
2022/05/08 10:23:41;;;;;;;;;13.00;13.00;;;;;20.30;53.56;99441.94;5083455;27;45367;-60
2022/05/08 10:26:16;;;;;;;;;16.00;15.25;;;;;20.37;52.35;99440.53;5079163;27;45327;-60
2022/05/08 10:29:09;;;;;;;;;12.50;12.50;;;;;20.36;51.71;99436.13;5086837;27;45483;-60
2022/05/08 10:31:48;;;;;;;;;14.00;14.00;;;;;20.37;52.11;99443.22;5089025;27;45390;-60
2022/05/08 10:34:15;;;;;;;;;14.25;12.00;;;;;20.35;51.62;99435.28;5081695;27;47475;-60
2022/05/08 10:37:13;;;;;;;;;14.80;14.80;;;;;20.35;51.28;99440.63;5090580;27;45337;-60
2022/05/08 10:39:42;;;;;;;;;14.75;14.50;;;;;20.33;51.53;99434.53;5074401;27;45541;-60
2022/05/08 10:42:23;;;;;;;;;13.00;12.25;;;;;20.35;51.09;99434.41;5095209;27;45390;-60
2022/05/08 10:44:50;;;;;;;;;12.50;12.50;;;;;20.36;51.25;99425.41;5084517;27;45860;-60
2022/05/08 10:47:33;;;;;;;;;11.60;11.60;;;;;20.41;51.25;99436.69;5082231;27;45388;-60
2022/05/08 10:50:04;;;;;;;;;15.50;13.50;;;;;20.51;51.24;99430.50;5065849;27;45484;-60
2022/05/08 10:52:37;;;;;;;;;14.00;11.75;;;;;20.60;51.14;99428.97;5088519;27;45407;-60
2022/05/08 10:55:05;;;;;;;;;13.25;12.75;;;;;20.75;51.96;99433.13;5074749;28;45608;-60
2022/05/08 10:57:35;;;;;;;;;14.20;13.80;;;;;20.91;51.43;99430.13;5088060;27;45385;-60
2022/05/08 11:00:05;;;;;;;;;12.25;12.25;;;;;21.04;50.80;99433.56;5084505;27;45439;-60
2022/05/08 11:02:43;;;;;;;;;14.75;13.00;;;;;21.20;51.59;99427.88;5089867;27;45439;-60
2022/05/08 11:05:10;;;;;;;;;8.25;8.00;;;;;21.35;50.56;99431.16;5085484;27;45513;-60
2022/05/08 11:07:46;;;;;;;;;13.60;13.40;;;;;21.40;50.58;99424.47;5078203;28;45496;-60
2022/05/08 11:10:23;;;;;;;;;17.50;15.75;;;;;21.45;51.54;99424.09;5074475;27;45486;-60
2022/05/08 11:13:09;;;;;;;;;11.25;11.25;;;;;21.60;51.03;99422.88;5090470;27;45403;-60
2022/05/08 11:15:37;;;;;;;;;13.00;11.50;;;;;21.69;50.74;99413.22;5094603;27;45675;-60
2022/05/08 11:18:15;;;;;;;;;16.60;14.60;;;;;21.82;51.05;99408.53;5086744;27;45412;-60
2022/05/08 11:20:55;;;;;;;;;16.25;15.50;;;;;21.94;50.32;99416.47;5089497;27;45735;-60
2022/05/08 11:23:26;;;;;;;;;14.50;13.75;;;;;21.95;49.98;99420.00;5087918;27;45400;-60
2022/05/08 11:25:55;;;;;;;;;13.75;13.75;;;;;21.97;48.85;99415.34;5084313;27;47010;-60
2022/05/08 11:28:22;;;;;;;;;13.00;12.20;;;;;22.04;49.27;99419.28;5088185;27;45466;-60
2022/05/08 11:30:50;;;;;;;;;15.40;14.00;;;;;22.05;49.42;99414.75;5088005;27;45372;-60
2022/05/08 11:38:41;;;;;;;;;9.40;9.40;;;;;21.92;47.66;99415.75;5086770;27;45444;-60
2022/05/08 11:41:13;;;;;;;;;9.50;9.50;;;;;21.81;48.87;99404.16;5069518;28;45426;-61
2022/05/08 11:44:03;;;;;;;;;15.50;12.75;;;;;21.71;47.95;99417.47;5069795;28;45411;-60
2022/05/08 11:46:47;;;;;;;;;14.50;13.00;;;;;21.65;49.87;99406.38;5076725;28;45502;-61
2022/05/08 11:49:20;;;;;;;;;11.20;11.20;;;;;21.67;49.08;99413.34;5076867;28;45396;-61
2022/05/08 11:51:50;;;;;;;;;13.75;13.75;;;;;21.65;48.54;99399.19;5077507;28;45438;-61
2022/05/08 11:54:21;;;;;;;;;6.75;6.75;;;;;21.65;46.72;99420.66;5077425;28;45363;-60